Time;durP1;ratioP1;P1;durP2;ratioP2;P2;SDS_P1;SDS_P2;PMS_P1;PMS_P2;Temp;Humidity;BMP_temperature;BMP_pressure;BME280_temperature;BME280_humidity;BME280_pressure;Samples;Min_cycle;Max_cycle;Signal;HPM_P1;HPM_P2
2021/06/12 00:00:17;;;;;;;18.37;12.50;;;19.60;85.00;;;;;;5063050;28;20426;-77
2021/06/12 00:02:43;;;;;;;15.67;11.90;;;19.50;85.50;;;;;;5072649;28;20442;-77
2021/06/12 00:05:10;;;;;;;15.90;12.63;;;19.40;85.60;;;;;;5071734;28;21246;-77
2021/06/12 00:07:36;;;;;;;17.70;12.27;;;19.50;85.70;;;;;;5072824;28;20661;-75
2021/06/12 00:10:07;;;;;;;15.67;11.90;;;19.40;85.90;;;;;;5073289;28;20984;-76
2021/06/12 00:12:33;;;;;;;18.30;11.80;;;19.40;86.00;;;;;;5071788;28;20433;-75
2021/06/12 00:14:58;;;;;;;16.30;12.00;;;19.30;86.00;;;;;;5068614;28;20490;-76
2021/06/12 00:17:24;;;;;;;16.00;11.80;;;19.40;85.90;;;;;;5067671;28;20180;-75
2021/06/12 00:19:50;;;;;;;17.43;12.50;;;19.40;85.70;;;;;;5073688;28;20657;-77
2021/06/12 00:22:16;;;;;;;16.80;13.00;;;19.40;85.90;;;;;;5071546;28;20273;-75
2021/06/12 00:24:41;;;;;;;17.33;13.20;;;19.20;86.50;;;;;;5073635;28;20234;-75
2021/06/12 00:27:09;;;;;;;20.00;13.23;;;19.20;86.60;;;;;;5084452;28;20188;-75
2021/06/12 00:29:34;;;;;;;16.50;12.13;;;19.20;86.50;;;;;;5068447;28;20531;-77
2021/06/12 00:32:00;;;;;;;18.53;12.70;;;19.20;86.20;;;;;;5072954;28;20467;-76
2021/06/12 00:34:26;;;;;;;17.47;12.40;;;19.20;86.20;;;;;;5073104;28;20213;-76
2021/06/12 00:36:52;;;;;;;16.03;11.83;;;19.30;86.20;;;;;;5073546;28;20194;-78
2021/06/12 00:39:18;;;;;;;16.77;13.07;;;19.30;85.90;;;;;;5073538;28;20183;-76
2021/06/12 00:41:44;;;;;;;16.90;12.50;;;19.30;85.90;;;;;;5072808;28;20431;-76
2021/06/12 00:44:10;;;;;;;16.73;13.07;;;19.20;86.00;;;;;;5074214;28;20232;-78
2021/06/12 00:46:36;;;;;;;17.47;12.87;;;19.20;86.20;;;;;;5072740;28;20965;-76
2021/06/12 00:49:02;;;;;;;18.50;12.57;;;19.20;86.00;;;;;;5073551;28;20418;-77
2021/06/12 00:51:28;;;;;;;16.27;11.97;;;19.20;85.90;;;;;;5073059;28;20174;-77
2021/06/12 00:53:54;;;;;;;18.53;12.97;;;19.10;86.50;;;;;;5071892;28;20472;-77
2021/06/12 00:56:20;;;;;;;17.30;13.47;;;19.00;86.90;;;;;;5073451;28;20403;-76
2021/06/12 00:58:48;;;;;;;16.93;12.23;;;19.00;87.00;;;;;;5072236;28;20784;-77
2021/06/12 01:01:16;;;;;;;17.50;12.70;;;18.90;87.30;;;;;;5067043;28;20504;-77
2021/06/12 01:03:45;;;;;;;17.90;12.97;;;18.90;87.40;;;;;;5073562;28;20525;-76
2021/06/12 01:06:17;;;;;;;22.73;14.10;;;18.90;87.30;;;;;;5074329;28;20571;-77
2021/06/12 01:08:43;;;;;;;19.20;13.13;;;18.90;87.40;;;;;;5071509;28;20422;-77
2021/06/12 01:11:10;;;;;;;16.40;13.13;;;18.90;87.40;;;;;;5072785;28;20499;-76
2021/06/12 01:13:59;;;;;;;17.93;12.83;;;18.80;87.40;;;;;;5064703;28;20563;-75
2021/06/12 01:17:01;;;;;;;18.37;13.20;;;18.80;87.40;;;;;;5073348;28;20416;-78
2021/06/12 01:19:54;;;;;;;18.23;14.00;;;18.90;87.40;;;;;;5069239;28;20408;-76
2021/06/12 01:22:27;;;;;;;17.07;13.00;;;18.90;87.00;;;;;;5067858;28;20472;-77
2021/06/12 01:24:55;;;;;;;18.83;13.00;;;18.90;87.00;;;;;;5075022;28;20443;-77
2021/06/12 01:28:06;;;;;;;16.43;13.47;;;18.90;86.80;;;;;;5080364;28;20420;-75
2021/06/12 01:30:34;;;;;;;19.90;14.30;;;18.90;86.80;;;;;;5041819;28;20438;-75
2021/06/12 01:33:06;;;;;;;17.20;12.27;;;18.90;86.80;;;;;;5035225;28;20529;-75
2021/06/12 01:35:41;;;;;;;20.10;13.37;;;19.00;86.90;;;;;;5035205;28;20429;-76
2021/06/12 01:38:10;;;;;;;16.57;13.30;;;19.00;86.80;;;;;;5037498;28;20518;-76
2021/06/12 01:40:41;;;;;;;18.77;12.97;;;19.00;86.20;;;;;;5041915;28;20423;-75
2021/06/12 01:43:09;;;;;;;17.57;12.53;;;18.90;86.80;;;;;;5021926;28;20543;-75
2021/06/12 01:45:35;;;;;;;21.07;13.60;;;18.90;86.50;;;;;;5031396;28;20428;-77
2021/06/12 01:48:02;;;;;;;17.60;13.27;;;18.90;86.80;;;;;;5029698;28;20445;-77
2021/06/12 01:50:28;;;;;;;16.93;12.50;;;18.90;86.80;;;;;;5029671;28;20439;-78
2021/06/12 01:52:55;;;;;;;20.83;14.57;;;18.80;86.50;;;;;;5028505;28;20430;-76
2021/06/12 01:55:26;;;;;;;18.13;14.00;;;18.70;87.10;;;;;;5029624;28;20501;-77
2021/06/12 01:57:52;;;;;;;18.43;13.93;;;18.60;87.60;;;;;;5029626;28;21167;-77
2021/06/12 02:00:19;;;;;;;20.23;13.80;;;18.60;87.60;;;;;;5028304;28;20424;-75
2021/06/12 02:02:46;;;;;;;18.03;13.50;;;18.70;87.60;;;;;;5010606;28;20452;-76
2021/06/12 02:05:30;;;;;;;20.27;13.97;;;18.70;87.70;;;;;;5027236;28;20979;-75
2021/06/12 02:07:57;;;;;;;18.30;12.53;;;18.80;87.60;;;;;;5065961;28;20423;-75
2021/06/12 02:10:27;;;;;;;19.33;13.07;;;18.80;87.30;;;;;;5071524;28;20635;-74
2021/06/12 02:12:55;;;;;;;18.87;13.90;;;18.80;87.10;;;;;;5069868;28;20864;-75
2021/06/12 02:15:22;;;;;;;19.07;14.03;;;18.80;87.10;;;;;;5068949;28;20989;-76
2021/06/12 02:17:51;;;;;;;18.37;13.77;;;18.80;87.10;;;;;;5070924;28;20423;-78
2021/06/12 02:20:18;;;;;;;21.93;14.57;;;18.80;87.00;;;;;;5063235;28;20783;-76
2021/06/12 02:22:50;;;;;;;20.83;13.13;;;18.70;87.40;;;;;;5061146;28;20533;-76
2021/06/12 02:25:18;;;;;;;20.63;13.77;;;18.50;88.00;;;;;;5058766;28;20789;-77
2021/06/12 02:27:50;;;;;;;20.20;13.50;;;18.50;88.00;;;;;;5076440;28;20440;-74
2021/06/12 02:30:19;;;;;;;19.53;14.17;;;18.50;88.00;;;;;;5079995;28;20420;-75
2021/06/12 02:32:48;;;;;;;18.77;13.40;;;18.60;87.60;;;;;;5071680;28;20446;-76
2021/06/12 02:35:14;;;;;;;18.37;14.10;;;18.60;87.40;;;;;;5071447;28;20455;-75
2021/06/12 02:37:43;;;;;;;28.37;14.33;;;18.70;87.40;;;;;;5071355;28;20410;-76
2021/06/12 02:40:10;;;;;;;20.13;13.87;;;18.70;87.30;;;;;;5071363;28;20169;-76
2021/06/12 02:42:36;;;;;;;21.00;13.10;;;18.70;86.90;;;;;;5069775;28;20935;-75
2021/06/12 02:45:06;;;;;;;17.80;12.30;;;18.70;87.10;;;;;;5070697;28;20446;-76
2021/06/12 02:47:36;;;;;;;15.97;12.07;;;18.70;87.30;;;;;;5070341;28;20428;-75
2021/06/12 02:50:03;;;;;;;17.90;12.60;;;18.70;87.60;;;;;;5062883;28;20423;-75
2021/06/12 02:52:32;;;;;;;16.40;12.80;;;18.70;87.70;;;;;;5068989;28;20434;-75
2021/06/12 02:55:04;;;;;;;17.23;13.00;;;18.70;87.60;;;;;;5070402;28;20470;-75
2021/06/12 02:57:31;;;;;;;18.77;13.17;;;18.70;87.30;;;;;;5071060;28;20894;-75
2021/06/12 02:59:59;;;;;;;18.77;14.20;;;18.70;87.10;;;;;;5070631;28;20498;-76
2021/06/12 03:02:26;;;;;;;18.60;12.93;;;18.60;87.00;;;;;;5070376;28;20426;-75
2021/06/12 03:04:52;;;;;;;20.73;13.67;;;18.60;87.10;;;;;;5070836;28;20452;-77
2021/06/12 03:07:21;;;;;;;22.63;14.07;;;18.50;87.30;;;;;;5069716;28;20436;-75
2021/06/12 03:09:48;;;;;;;17.40;13.20;;;18.50;87.30;;;;;;5069796;28;20440;-76
2021/06/12 03:12:17;;;;;;;18.63;13.53;;;18.40;87.30;;;;;;5069099;28;20456;-76
2021/06/12 03:14:45;;;;;;;17.93;13.47;;;18.30;87.80;;;;;;5071089;28;20493;-77
2021/06/12 03:17:11;;;;;;;17.50;13.10;;;18.30;87.80;;;;;;5069702;28;20431;-76
2021/06/12 03:19:40;;;;;;;17.70;13.20;;;18.30;88.00;;;;;;5071216;28;20472;-77
2021/06/12 03:22:06;;;;;;;18.20;13.50;;;18.30;88.40;;;;;;5070269;28;20481;-75
2021/06/12 03:24:33;;;;;;;18.13;13.03;;;18.30;88.70;;;;;;5070210;28;20524;-75
2021/06/12 03:27:00;;;;;;;21.27;14.00;;;18.40;88.60;;;;;;5062241;28;20431;-77
2021/06/12 03:29:31;;;;;;;20.43;13.23;;;18.40;88.10;;;;;;5069652;28;20435;-75
2021/06/12 03:31:58;;;;;;;18.03;13.37;;;18.50;87.80;;;;;;5057384;28;20418;-77
2021/06/12 03:34:25;;;;;;;20.03;14.33;;;18.50;87.30;;;;;;5070822;28;20885;-76
2021/06/12 03:36:51;;;;;;;16.83;13.33;;;18.40;87.70;;;;;;5070412;28;20981;-75
2021/06/12 03:39:17;;;;;;;20.80;13.40;;;18.30;88.40;;;;;;5070230;28;20410;-77
2021/06/12 03:41:44;;;;;;;22.10;14.10;;;18.20;88.70;;;;;;5065478;28;20485;-77
2021/06/12 03:44:13;;;;;;;18.20;14.10;;;18.00;89.60;;;;;;5073003;28;20442;-77
2021/06/12 03:46:41;;;;;;;17.90;14.30;;;17.90;90.20;;;;;;5074852;28;20470;-77
2021/06/12 03:49:10;;;;;;;19.53;13.83;;;17.90;90.30;;;;;;5071636;28;20430;-75
2021/06/12 03:51:37;;;;;;;21.67;14.90;;;17.90;90.00;;;;;;5070450;28;20418;-75
2021/06/12 03:54:06;;;;;;;18.23;14.60;;;17.90;90.10;;;;;;5074474;28;20561;-77
2021/06/12 03:56:34;;;;;;;19.83;14.23;;;17.90;90.00;;;;;;5074741;28;20422;-76
2021/06/12 03:59:01;;;;;;;18.67;14.53;;;17.90;90.10;;;;;;5072669;28;20421;-76
2021/06/12 04:01:27;;;;;;;25.00;13.97;;;17.80;90.00;;;;;;5076477;28;20414;-76
2021/06/12 04:03:53;;;;;;;18.53;14.00;;;17.80;90.00;;;;;;5075001;28;20445;-76
2021/06/12 04:06:20;;;;;;;18.80;13.80;;;17.80;90.10;;;;;;5074085;28;20658;-75
2021/06/12 04:08:48;;;;;;;17.80;13.03;;;17.70;90.00;;;;;;5066123;28;20524;-76
2021/06/12 04:11:14;;;;;;;16.30;12.60;;;17.70;89.90;;;;;;5074401;28;20449;-74
2021/06/12 04:13:40;;;;;;;16.77;13.13;;;17.80;89.70;;;;;;5072214;28;20503;-76
2021/06/12 04:16:06;;;;;;;18.90;13.33;;;17.90;89.60;;;;;;5075480;28;20414;-76
2021/06/12 04:18:32;;;;;;;17.93;13.80;;;18.00;89.50;;;;;;5074307;28;20214;-75
2021/06/12 04:20:58;;;;;;;18.30;13.37;;;18.00;89.20;;;;;;5073258;28;20468;-76
2021/06/12 04:23:24;;;;;;;18.63;13.70;;;18.00;89.50;;;;;;5071962;28;20538;-75
2021/06/12 04:25:50;;;;;;;17.70;13.83;;;17.90;89.70;;;;;;5074859;28;20184;-76
2021/06/12 04:28:15;;;;;;;17.27;13.87;;;17.70;90.60;;;;;;5076547;28;20676;-76
2021/06/12 04:30:42;;;;;;;17.80;13.23;;;17.70;90.50;;;;;;5074738;28;20206;-76
2021/06/12 04:33:08;;;;;;;18.70;14.33;;;17.80;90.30;;;;;;5077343;28;20223;-77
2021/06/12 04:35:34;;;;;;;20.70;14.00;;;17.90;89.90;;;;;;5072841;28;20445;-76
2021/06/12 04:38:00;;;;;;;20.50;13.27;;;17.90;89.70;;;;;;5068767;28;20185;-76
2021/06/12 04:40:31;;;;;;;21.90;13.13;;;18.00;89.60;;;;;;5074233;28;20256;-75
2021/06/12 04:42:57;;;;;;;18.70;13.40;;;17.90;89.50;;;;;;5070155;28;20488;-76
2021/06/12 04:45:23;;;;;;;15.50;12.77;;;17.90;89.90;;;;;;5074221;28;20472;-75
2021/06/12 04:47:49;;;;;;;18.63;13.23;;;18.00;89.50;;;;;;5066353;28;20434;-75
2021/06/12 04:50:15;;;;;;;18.20;13.70;;;17.90;89.30;;;;;;5073936;28;20928;-77
2021/06/12 04:52:42;;;;;;;19.33;13.80;;;17.90;89.70;;;;;;5075408;28;20425;-77
2021/06/12 04:55:09;;;;;;;17.63;13.83;;;18.00;89.50;;;;;;5076145;28;20482;-77
2021/06/12 04:57:36;;;;;;;19.27;12.83;;;18.10;89.20;;;;;;5071234;28;20940;-77
2021/06/12 05:00:07;;;;;;;19.67;14.40;;;18.10;89.20;;;;;;5074736;28;20509;-75
2021/06/12 05:02:33;;;;;;;18.30;13.27;;;18.20;88.40;;;;;;5074089;28;20425;-76
2021/06/12 05:04:58;;;;;;;19.13;14.73;;;18.20;88.00;;;;;;5072599;28;20618;-77
2021/06/12 05:07:24;;;;;;;18.17;13.90;;;18.20;88.40;;;;;;5071588;28;20444;-77
2021/06/12 05:09:50;;;;;;;18.40;13.90;;;18.20;88.70;;;;;;5075211;28;20423;-77
2021/06/12 05:12:16;;;;;;;20.37;13.10;;;18.30;88.70;;;;;;5068229;28;20204;-76
2021/06/12 05:14:44;;;;;;;18.30;13.73;;;18.50;88.00;;;;;;5073383;28;20206;-75
2021/06/12 05:17:12;;;;;;;20.17;14.07;;;18.70;87.40;;;;;;5075196;28;20181;-75
2021/06/12 05:19:38;;;;;;;19.70;14.07;;;18.70;87.10;;;;;;5074135;28;20429;-77
2021/06/12 05:22:04;;;;;;;17.10;13.60;;;18.70;86.80;;;;;;5067026;28;20418;-77
2021/06/12 05:24:30;;;;;;;15.87;13.20;;;18.80;87.00;;;;;;5074815;28;20283;-76
2021/06/12 05:26:56;;;;;;;19.27;14.30;;;18.90;86.60;;;;;;5075246;28;20474;-76
2021/06/12 05:29:21;;;;;;;19.17;13.20;;;19.10;85.50;;;;;;5079083;28;20213;-76
2021/06/12 05:31:47;;;;;;;19.93;12.70;;;19.20;85.00;;;;;;5079471;28;20450;-76
2021/06/12 05:34:13;;;;;;;19.07;13.03;;;19.20;84.90;;;;;;5080990;28;20231;-77
2021/06/12 05:36:39;;;;;;;16.97;12.63;;;19.20;85.20;;;;;;5087531;28;20268;-76
2021/06/12 05:39:06;;;;;;;22.40;12.97;;;19.40;84.60;;;;;;5081410;28;20530;-76
2021/06/12 05:41:32;;;;;;;16.00;12.40;;;19.50;84.60;;;;;;5079150;28;20180;-77
2021/06/12 05:43:57;;;;;;;17.67;13.97;;;19.60;84.00;;;;;;5065956;28;20551;-77
2021/06/12 05:46:23;;;;;;;18.27;13.67;;;19.80;82.80;;;;;;5067807;28;20463;-78
2021/06/12 05:48:49;;;;;;;17.83;12.77;;;19.90;82.70;;;;;;5072428;28;20248;-76
2021/06/12 05:51:15;;;;;;;17.33;13.33;;;20.00;82.80;;;;;;5067010;28;20182;-75
2021/06/12 05:53:40;;;;;;;27.00;14.40;;;20.10;82.70;;;;;;5072149;28;20211;-78
2021/06/12 05:56:06;;;;;;;17.83;12.20;;;20.30;81.80;;;;;;5070986;28;20232;-77
2021/06/12 05:58:33;;;;;;;17.37;12.70;;;20.40;81.50;;;;;;5072059;28;20188;-75
2021/06/12 06:00:59;;;;;;;14.87;11.93;;;20.50;81.20;;;;;;5069204;28;20436;-77
2021/06/12 06:03:25;;;;;;;15.00;11.33;;;20.70;80.60;;;;;;5071943;28;20452;-76
2021/06/12 06:05:51;;;;;;;15.77;11.27;;;20.80;79.90;;;;;;5068019;28;20193;-75
2021/06/12 06:08:16;;;;;;;15.00;12.30;;;20.90;79.70;;;;;;5072606;28;20188;-73
2021/06/12 06:10:42;;;;;;;17.43;12.40;;;21.00;79.50;;;;;;5072519;28;20195;-73
2021/06/12 06:13:08;;;;;;;18.33;12.40;;;21.10;78.70;;;;;;5063486;28;20232;-73
2021/06/12 06:15:34;;;;;;;17.90;13.73;;;21.20;78.60;;;;;;5069317;28;20687;-72
2021/06/12 06:18:00;;;;;;;19.43;13.00;;;21.20;77.70;;;;;;5069774;28;20190;-74
2021/06/12 06:20:26;;;;;;;17.97;12.30;;;21.30;77.70;;;;;;5069515;28;20185;-73
2021/06/12 06:22:52;;;;;;;15.40;11.80;;;21.40;77.30;;;;;;5069223;28;20431;-73
2021/06/12 06:25:18;;;;;;;23.70;14.93;;;21.40;77.00;;;;;;5071429;28;20524;-73
2021/06/12 06:27:43;;;;;;;36.27;22.27;;;21.40;77.70;;;;;;5071221;28;20203;-72
2021/06/12 06:30:10;;;;;;;20.10;15.50;;;20.90;80.00;;;;;;5071293;28;20237;-72
2021/06/12 06:32:36;;;;;;;27.30;18.60;;;20.90;80.30;;;;;;5071009;28;20922;-74
2021/06/12 06:35:02;;;;;;;24.20;15.70;;;21.10;80.00;;;;;;5073677;28;20474;-72
2021/06/12 06:37:28;;;;;;;26.23;17.23;;;21.30;79.20;;;;;;5075418;28;20188;-72
2021/06/12 06:39:54;;;;;;;21.20;14.37;;;21.50;78.90;;;;;;5070794;28;20432;-72
2021/06/12 06:42:19;;;;;;;21.43;14.47;;;21.60;77.60;;;;;;5070962;28;20195;-72
2021/06/12 06:44:45;;;;;;;24.60;14.50;;;21.60;78.10;;;;;;5070324;28;20216;-73
2021/06/12 06:47:11;;;;;;;16.93;12.10;;;21.80;77.60;;;;;;5071015;28;20187;-73
2021/06/12 06:49:37;;;;;;;20.57;13.60;;;21.90;77.10;;;;;;5070623;28;20186;-72
2021/06/12 06:52:06;;;;;;;16.30;13.10;;;22.10;76.20;;;;;;5070368;28;20233;-72
2021/06/12 06:54:32;;;;;;;22.43;14.83;;;22.20;75.70;;;;;;5068532;28;20484;-73
2021/06/12 06:56:59;;;;;;;22.50;14.50;;;22.20;75.70;;;;;;5070591;28;20416;-73
2021/06/12 06:59:25;;;;;;;18.20;14.40;;;22.20;76.20;;;;;;5070549;28;20431;-71
2021/06/12 07:01:50;;;;;;;28.50;17.00;;;22.30;75.70;;;;;;5068481;28;20424;-73
2021/06/12 07:04:16;;;;;;;18.10;12.43;;;22.40;75.10;;;;;;5064731;28;20477;-73
2021/06/12 07:06:42;;;;;;;19.23;13.63;;;22.30;75.20;;;;;;5070245;28;20214;-72
2021/06/12 07:09:08;;;;;;;21.60;13.23;;;22.50;75.10;;;;;;5063511;28;20192;-74
2021/06/12 07:11:34;;;;;;;19.63;14.63;;;22.70;74.30;;;;;;5063389;28;20182;-73
2021/06/12 07:13:59;;;;;;;18.57;12.83;;;22.70;73.90;;;;;;5070285;28;20225;-73
2021/06/12 07:16:25;;;;;;;18.60;11.93;;;22.90;73.70;;;;;;5072261;28;20508;-71
2021/06/12 07:18:51;;;;;;;16.20;12.63;;;23.10;73.30;;;;;;5074248;28;20193;-74
2021/06/12 07:21:17;;;;;;;17.63;12.03;;;23.30;72.40;;;;;;5074273;28;20707;-73
2021/06/12 07:23:43;;;;;;;12.73;11.03;;;23.40;71.40;;;;;;5072868;28;20445;-73
2021/06/12 07:26:08;;;;;;;14.73;11.60;;;23.30;71.40;;;;;;5074363;28;20202;-74
2021/06/12 07:28:34;;;;;;;15.17;11.20;;;23.30;71.60;;;;;;5075273;28;20186;-72
2021/06/12 07:31:00;;;;;;;15.93;10.37;;;23.40;71.80;;;;;;5074031;28;20628;-71
2021/06/12 07:33:26;;;;;;;15.20;12.13;;;23.70;71.10;;;;;;5073903;28;20687;-73
2021/06/12 07:35:52;;;;;;;13.77;11.00;;;23.80;70.40;;;;;;5072075;28;20254;-74
2021/06/12 07:38:17;;;;;;;25.80;14.00;;;23.90;70.10;;;;;;5071704;28;20756;-74
2021/06/12 07:40:43;;;;;;;16.23;12.50;;;24.00;70.10;;;;;;5068499;28;20348;-72
2021/06/12 07:43:10;;;;;;;18.50;12.90;;;24.10;69.90;;;;;;5076017;28;20279;-74
2021/06/12 07:45:36;;;;;;;13.70;12.03;;;24.10;69.50;;;;;;5084389;28;20435;-73
2021/06/12 07:48:04;;;;;;;17.63;12.13;;;24.20;69.50;;;;;;5078505;28;20539;-72
2021/06/12 07:50:30;;;;;;;14.50;12.23;;;24.30;69.10;;;;;;5082971;28;20428;-73
2021/06/12 07:52:56;;;;;;;15.53;12.60;;;24.40;69.10;;;;;;5081165;28;20416;-73
2021/06/12 07:55:22;;;;;;;15.40;11.90;;;24.50;68.30;;;;;;5067571;28;20604;-73
2021/06/12 07:57:47;;;;;;;10.60;8.70;;;24.40;69.40;;;;;;5071494;28;20212;-73
2021/06/12 08:00:14;;;;;;;17.73;12.43;;;24.60;67.90;;;;;;5070900;28;20692;-73
2021/06/12 08:02:40;;;;;;;16.33;11.63;;;24.80;68.30;;;;;;5070523;28;20192;-74
2021/06/12 08:05:07;;;;;;;18.20;11.97;;;24.70;68.90;;;;;;5070691;28;20447;-73
2021/06/12 08:07:33;;;;;;;13.70;10.30;;;24.80;68.80;;;;;;5070965;28;20431;-72
2021/06/12 08:10:02;;;;;;;17.63;11.63;;;24.90;68.90;;;;;;5067438;28;21194;-73
2021/06/12 08:12:28;;;;;;;17.90;12.53;;;24.90;68.30;;;;;;5069301;28;20438;-73
2021/06/12 08:14:54;;;;;;;15.53;11.50;;;24.90;68.20;;;;;;5069033;28;20472;-74
2021/06/12 08:17:20;;;;;;;22.77;15.17;;;25.00;68.60;;;;;;5071304;28;20486;-73
2021/06/12 08:19:45;;;;;;;24.90;17.07;;;25.10;67.50;;;;;;5067556;28;20193;-73
2021/06/12 08:22:12;;;;;;;13.47;11.23;;;25.30;67.20;;;;;;5063913;28;20272;-72
2021/06/12 08:24:38;;;;;;;19.97;13.70;;;25.40;67.20;;;;;;5064021;28;20580;-73
2021/06/12 08:27:05;;;;;;;14.70;11.40;;;25.70;65.80;;;;;;5070462;28;20445;-73
2021/06/12 08:29:31;;;;;;;17.27;12.00;;;25.90;65.60;;;;;;5070772;28;20423;-73
2021/06/12 08:31:57;;;;;;;15.97;10.80;;;26.10;64.50;;;;;;5062757;28;20517;-73
2021/06/12 08:34:23;;;;;;;16.93;11.77;;;26.10;62.80;;;;;;5071764;28;20559;-73
2021/06/12 08:36:49;;;;;;;12.00;9.87;;;25.90;63.40;;;;;;5071702;28;20190;-73
2021/06/12 08:39:15;;;;;;;18.77;10.70;;;25.60;64.70;;;;;;5072019;28;20232;-72
2021/06/12 08:41:42;;;;;;;15.77;11.93;;;25.50;65.30;;;;;;5072879;28;20799;-72
2021/06/12 08:44:10;;;;;;;17.73;11.77;;;25.30;66.40;;;;;;5069258;28;20995;-72
2021/06/12 08:46:38;;;;;;;15.50;11.10;;;25.50;66.10;;;;;;5067992;28;20497;-72
2021/06/12 08:49:04;;;;;;;13.13;9.37;;;25.50;66.70;;;;;;5067297;28;20431;-72
2021/06/12 08:51:29;;;;;;;10.90;8.43;;;25.50;65.70;;;;;;5070444;28;20444;-72
2021/06/12 08:53:55;;;;;;;10.63;8.60;;;25.50;66.30;;;;;;5065896;28;20482;-72
2021/06/12 08:56:21;;;;;;;10.83;8.23;;;25.70;66.70;;;;;;5069371;28;20230;-72
2021/06/12 08:58:48;;;;;;;12.37;9.73;;;25.70;66.30;;;;;;5071639;28;20534;-73
2021/06/12 09:01:14;;;;;;;12.17;9.10;;;25.40;67.00;;;;;;5073503;28;20479;-73
2021/06/12 09:03:44;;;;;;;15.70;9.90;;;25.00;68.20;;;;;;5073128;28;20477;-73
2021/06/12 09:06:12;;;;;;;13.00;9.00;;;25.10;69.40;;;;;;5070756;28;20431;-72
2021/06/12 09:08:40;;;;;;;13.00;9.93;;;24.80;69.80;;;;;;5069040;28;20431;-73
2021/06/12 09:11:05;;;;;;;13.87;10.27;;;24.70;70.20;;;;;;5068197;28;20472;-72
2021/06/12 09:13:48;;;;;;;12.23;9.50;;;24.70;71.00;;;;;;5065834;28;20548;-72
2021/06/12 09:16:27;;;;;;;10.87;7.40;;;24.80;71.40;;;;;;5070542;28;20366;-73
2021/06/12 09:18:55;;;;;;;12.53;7.70;;;25.10;70.10;;;;;;5070491;28;20783;-73
2021/06/12 09:21:36;;;;;;;8.87;7.17;;;25.00;68.30;;;;;;5075487;28;20436;-73
2021/06/12 09:24:06;;;;;;;11.60;7.00;;;25.00;69.10;;;;;;5069101;28;20544;-73
2021/06/12 09:26:48;;;;;;;7.63;5.60;;;25.20;69.70;;;;;;5068310;28;20957;-72
2021/06/12 09:29:18;;;;;;;7.93;5.27;;;25.30;66.40;;;;;;5070995;28;20475;-73
2021/06/12 09:31:53;;;;;;;19.10;5.60;;;25.40;66.00;;;;;;5075605;28;20811;-72
2021/06/12 09:34:23;;;;;;;11.50;4.70;;;25.60;62.20;;;;;;5064803;28;21279;-73
2021/06/12 09:36:51;;;;;;;6.40;4.37;;;25.60;60.90;;;;;;5069382;28;20418;-72
2021/06/12 09:39:22;;;;;;;6.50;4.23;;;25.60;62.90;;;;;;5068235;28;20428;-72
2021/06/12 09:41:51;;;;;;;7.10;5.07;;;25.50;62.50;;;;;;5067021;28;20443;-73
2021/06/12 09:44:34;;;;;;;4.60;3.90;;;25.30;62.90;;;;;;5063064;28;20463;-73
2021/06/12 09:47:04;;;;;;;5.67;4.10;;;25.40;63.50;;;;;;5059933;28;20431;-73
2021/06/12 09:49:33;;;;;;;5.20;4.00;;;25.60;62.30;;;;;;5068503;28;20488;-73
2021/06/12 09:52:14;;;;;;;6.77;4.13;;;25.70;61.60;;;;;;5061108;28;20941;-72
2021/06/12 09:54:45;;;;;;;7.20;4.30;;;25.50;62.00;;;;;;5064345;28;20474;-72
2021/06/12 09:57:16;;;;;;;5.57;3.80;;;25.40;62.30;;;;;;5074920;28;20457;-73
2021/06/12 09:59:56;;;;;;;6.80;4.30;;;25.60;60.70;;;;;;5075723;28;20494;-74
2021/06/12 10:02:36;;;;;;;5.37;4.23;;;25.70;61.30;;;;;;5063286;28;20424;-72
2021/06/12 10:05:03;;;;;;;4.97;4.00;;;25.60;60.90;;;;;;5062315;28;20452;-72
2021/06/12 10:07:30;;;;;;;5.80;3.60;;;25.50;61.50;;;;;;5061508;28;20424;-72
2021/06/12 10:09:56;;;;;;;3.93;3.80;;;25.70;61.00;;;;;;5066775;28;20423;-73
2021/06/12 10:12:23;;;;;;;4.00;3.50;;;25.50;61.30;;;;;;5065661;28;20442;-72
2021/06/12 10:14:51;;;;;;;5.80;3.80;;;25.80;61.30;;;;;;5067956;28;20801;-72
2021/06/12 10:17:19;;;;;;;8.30;3.93;;;26.10;60.00;;;;;;5068042;28;20477;-72
2021/06/12 10:19:49;;;;;;;4.60;3.73;;;26.40;59.20;;;;;;5062955;28;20532;-72
2021/06/12 10:22:15;;;;;;;4.83;3.77;;;26.70;58.50;;;;;;5067486;28;20521;-73
2021/06/12 10:24:41;;;;;;;4.53;3.53;;;27.10;57.20;;;;;;5068826;28;20555;-73
2021/06/12 10:27:08;;;;;;;4.80;4.23;;;26.90;56.60;;;;;;5069471;28;20258;-74
2021/06/12 10:29:35;;;;;;;5.10;3.87;;;26.60;57.30;;;;;;5068208;28;20622;-73
2021/06/12 10:32:05;;;;;;;4.80;3.80;;;26.70;56.60;;;;;;5068544;28;20507;-72
2021/06/12 10:34:32;;;;;;;8.43;4.20;;;26.40;58.00;;;;;;5069933;28;20475;-73
2021/06/12 10:37:07;;;;;;;7.63;4.67;;;26.60;56.40;;;;;;5062924;28;20448;-73
2021/06/12 10:39:34;;;;;;;5.67;4.23;;;26.80;56.40;;;;;;5069579;28;20532;-74
2021/06/12 10:42:09;;;;;;;5.50;4.07;;;27.10;56.80;;;;;;5063671;28;20444;-75
2021/06/12 10:44:35;;;;;;;6.83;4.20;;;27.30;55.00;;;;;;5072281;28;20493;-73
2021/06/12 10:47:01;;;;;;;5.40;4.40;;;27.50;55.00;;;;;;5077648;28;20531;-74
2021/06/12 10:49:31;;;;;;;6.30;4.87;;;27.30;53.80;;;;;;5071283;28;20270;-72
2021/06/12 10:51:58;;;;;;;7.00;4.53;;;27.40;53.40;;;;;;5066767;28;20167;-75
2021/06/12 10:54:28;;;;;;;5.70;4.07;;;27.70;53.20;;;;;;5068403;28;20475;-73
2021/06/12 10:57:03;;;;;;;5.23;4.57;;;27.40;54.40;;;;;;5074088;28;20444;-74
2021/06/12 10:59:48;;;;;;;5.83;4.60;;;27.30;55.40;;;;;;5073122;28;20485;-73
2021/06/12 11:02:21;;;;;;;4.97;4.30;;;27.40;54.90;;;;;;5073521;28;20429;-74
2021/06/12 11:04:54;;;;;;;6.87;4.50;;;27.30;54.40;;;;;;5074334;28;21031;-74
2021/06/12 11:07:27;;;;;;;4.90;3.90;;;27.30;53.40;;;;;;5074588;28;20775;-74
2021/06/12 11:10:16;;;;;;;5.13;4.17;;;27.50;51.40;;;;;;5074843;28;20425;-74
2021/06/12 11:12:45;;;;;;;4.13;3.93;;;28.00;49.10;;;;;;5070721;28;21259;-74
2021/06/12 11:15:20;;;;;;;7.67;4.83;;;28.00;48.50;;;;;;5074452;28;20491;-73
2021/06/12 11:18:19;;;;;;;5.77;4.23;;;28.10;49.50;;;;;;5074277;28;20855;-73
2021/06/12 11:20:47;;;;;;;6.93;4.50;;;28.50;51.40;;;;;;5071223;28;20432;-75
2021/06/12 11:23:20;;;;;;;5.30;4.70;;;27.90;53.40;;;;;;5074081;28;20441;-73
2021/06/12 11:25:55;;;;;;;5.43;4.50;;;28.20;53.70;;;;;;5074708;28;20445;-74
2021/06/12 11:28:27;;;;;;;5.97;4.90;;;28.40;52.10;;;;;;5074211;28;20922;-75
2021/06/12 11:31:14;;;;;;;5.50;4.63;;;27.80;54.60;;;;;;5072398;28;20425;-76
2021/06/12 11:33:40;;;;;;;6.83;4.90;;;28.00;54.80;;;;;;5062892;28;20987;-75
2021/06/12 11:36:05;;;;;;;11.10;4.97;;;28.10;54.90;;;;;;5071391;28;20524;-75
2021/06/12 11:38:36;;;;;;;8.30;4.83;;;27.90;53.60;;;;;;5075525;28;20183;-74
2021/06/12 11:41:06;;;;;;;5.00;4.70;;;27.40;54.80;;;;;;5070662;28;20183;-75
2021/06/12 11:43:45;;;;;;;6.67;4.67;;;27.10;55.60;;;;;;5070377;28;20954;-74
2021/06/12 11:46:42;;;;;;;5.20;4.47;;;27.50;54.10;;;;;;5073829;28;20415;-73
2021/06/12 11:49:11;;;;;;;7.13;4.63;;;27.20;53.60;;;;;;5072672;28;20417;-76
2021/06/12 11:51:45;;;;;;;4.93;4.27;;;27.10;52.80;;;;;;5072623;28;20438;-75
2021/06/12 11:54:31;;;;;;;7.03;4.60;;;26.70;54.00;;;;;;5073238;28;20847;-74
2021/06/12 11:57:02;;;;;;;8.87;4.20;;;26.80;53.60;;;;;;5072819;28;20404;-74
2021/06/12 11:59:30;;;;;;;9.07;4.30;;;26.90;54.00;;;;;;5073615;28;20524;-74
2021/06/12 12:02:07;;;;;;;5.37;3.67;;;27.30;52.20;;;;;;5072323;28;20466;-74
2021/06/12 12:04:40;;;;;;;6.93;3.70;;;27.00;52.40;;;;;;5061588;28;20452;-74
2021/06/12 12:07:08;;;;;;;4.73;4.03;;;27.30;51.20;;;;;;5070839;28;21104;-73
2021/06/12 12:09:41;;;;;;;7.40;4.37;;;27.20;50.90;;;;;;5069486;28;20439;-73
2021/06/12 12:12:09;;;;;;;6.40;3.73;;;27.00;52.10;;;;;;5069803;28;20429;-76
2021/06/12 12:14:40;;;;;;;6.33;4.30;;;27.20;52.20;;;;;;5071945;28;20470;-73
2021/06/12 12:17:20;;;;;;;6.63;4.10;;;27.40;51.00;;;;;;5071107;28;20439;-73
2021/06/12 12:19:57;;;;;;;5.83;3.90;;;27.50;50.50;;;;;;5072499;28;20482;-74
2021/06/12 12:22:36;;;;;;;4.83;3.60;;;26.90;53.00;;;;;;5071084;28;20483;-76
2021/06/12 12:25:03;;;;;;;4.30;3.20;;;27.20;52.00;;;;;;5064618;28;20440;-74
2021/06/12 12:27:29;;;;;;;6.77;4.10;;;26.70;52.80;;;;;;5072325;28;20443;-73
2021/06/12 12:29:54;;;;;;;4.33;3.73;;;27.10;52.10;;;;;;5072061;28;20820;-75
2021/06/12 12:32:23;;;;;;;5.73;3.80;;;27.10;51.70;;;;;;5071732;28;20201;-75
2021/06/12 12:34:49;;;;;;;6.83;3.43;;;27.50;52.50;;;;;;5072252;28;20706;-74
2021/06/12 12:37:23;;;;;;;18.13;3.33;;;27.70;49.70;;;;;;5072147;28;20499;-73
2021/06/12 12:39:52;;;;;;;3.60;3.20;;;27.60;49.70;;;;;;5072050;28;20461;-74